Time;durP1;ratioP1;P1;durP2;ratioP2;P2;SDS_P1;SDS_P2;PMS_P1;PMS_P2;Temp;Humidity;BMP_temperature;BMP_pressure;BME280_temperature;BME280_humidity;BME280_pressure;Samples;Min_cycle;Max_cycle;Signal;HPM_P1;HPM_P2
2021/08/12 00:05:57;;;;;;;;;;;;;;;;;;;;;
2021/08/12 00:09:17;;;;;;;;;;;;;;;;;;;;;
2021/08/12 00:15:51;;;;;;;10.82;8.32;;;15.70;99.90;;;;;;5711876;24;19912;-83
2021/08/12 00:18:42;;;;;;;9.20;7.97;;;15.70;99.90;;;;;;5666080;24;20098;-83
2021/08/12 02:57:04;;;;;;;;;;;;;;;;;;;;;
2021/08/12 03:29:50;;;;;;;7.05;5.70;;;15.30;99.90;;;;;;5990625;23;20893;-80
2021/08/12 04:06:45;;;;;;;;;;;;;;;;;;;;;
2021/08/12 06:07:16;;;;;;;10.13;6.82;;;15.20;99.90;;;;;;5812688;23;7362898;-80
2021/08/12 06:10:25;;;;;;;7.00;6.30;;;15.20;99.90;;;;;;5962958;23;20087;-82
2021/08/12 06:14:15;;;;;;;;;;;;;;;;;;;;;
2021/08/12 06:17:20;;;;;;;7.82;6.55;;;15.10;99.90;;;;;;5918657;23;20023;-83
2021/08/12 06:24:52;;;;;;;7.85;7.05;;;15.10;99.90;;;;;;5808823;24;20716;-83
2021/08/12 06:31:56;;;;;;;;;;;;;;;;;;;;;
2021/08/12 06:35:11;;;;;;;;;;;;;;;;;;;;;
2021/08/12 06:42:04;;;;;;;7.45;6.75;;;15.20;99.90;;;;;;5760870;24;20035;-83
2021/08/12 06:45:52;;;;;;;;;;;;;;;;;;;;;
2021/08/12 06:48:35;;;;;;;;;;;;;;;;;;;;;
2021/08/12 06:51:19;;;;;;;5.85;5.25;;;15.60;99.90;;;;;;5652353;24;20025;-83
2021/08/12 06:57:35;;;;;;;;;;;;;;;;;;;;;
2021/08/12 07:04:01;;;;;;;;;;;;;;;;;;;;;
2021/08/12 07:06:49;;;;;;;;;;;;;;;;;;;;;
2021/08/12 07:45:10;;;;;;;;;;;;;;;;;;;;;
2021/08/12 10:13:32;;;;;;;;;;;;;;;;;;;;;
2021/08/12 10:40:48;;;;;;;;;;;;;;;;;;;;;
2021/08/12 10:43:51;;;;;;;2.13;1.70;;;23.50;99.90;;;;;;6096444;23;20330;-84
2021/08/12 10:47:28;;;;;;;2.25;1.73;;;23.50;99.90;;;;;;6072678;23;20109;-83
2021/08/12 10:51:17;;;;;;;;;;;;;;;;;;;;;
2021/08/12 10:54:31;;;;;;;;;;;;;;;;;;;;;
2021/08/12 10:57:56;;;;;;;1.92;1.50;;;23.60;99.90;;;;;;5868328;24;20124;-83
2021/08/12 11:01:32;;;;;;;;;;;;;;;;;;;;;
2021/08/12 11:04:13;;;;;;;;;;;;;;;;;;;;;
2021/08/12 11:11:06;;;;;;;2.10;1.70;;;23.50;99.90;;;;;;5636173;24;20095;-84
2021/08/12 11:14:49;;;;;;;;;;;;;;;;;;;;;
2021/08/12 13:13:37;;;;;;;;;;;;;;;;;;;;;
2021/08/12 18:04:14;;;;;;;2.20;2.00;;;22.10;99.90;;;;;;6130862;22;1339131;-82
2021/08/12 18:07:46;;;;;;;;;;;;;;;;;;;;;
2021/08/12 18:14:22;;;;;;;;;;;;;;;;;;;;;
2021/08/12 18:17:22;;;;;;;;;;;;;;;;;;;;;
2021/08/12 18:27:29;;;;;;;;;;;;;;;;;;;;;
2021/08/12 18:50:49;;;;;;;;;;;;;;;;;;;;;
2021/08/12 18:58:12;;;;;;;;;;;;;;;;;;;;;
2021/08/12 19:00:50;;;;;;;3.33;2.58;;;24.50;99.90;;;;;;5861977;24;20347;-83
2021/08/12 19:03:32;;;;;;;4.28;2.05;;;24.10;99.90;;;;;;5893188;24;20082;-82
2021/08/12 19:06:37;;;;;;;2.95;2.17;;;23.70;99.90;;;;;;5873980;24;20025;-83
2021/08/12 19:09:30;;;;;;;2.70;2.50;;;23.40;99.90;;;;;;5811701;24;20036;-83
2021/08/12 19:12:22;;;;;;;;;;;;;;;;;;;;;
2021/08/12 19:15:11;;;;;;;2.60;2.08;;;22.50;99.90;;;;;;5766868;24;20035;-82
2021/08/12 19:17:39;;;;;;;3.22;2.22;;;22.10;99.90;;;;;;5801785;24;20026;-80
2021/08/12 19:20:19;;;;;;;3.30;2.53;;;21.80;99.90;;;;;;5833626;24;20021;-81
2021/08/12 19:22:59;;;;;;;;;;;;;;;;;;;;;
2021/08/12 19:25:49;;;;;;;3.42;2.72;;;21.20;99.90;;;;;;5860565;24;20037;-79
2021/08/12 19:28:18;;;;;;;4.63;3.70;;;21.00;99.90;;;;;;5861419;24;20018;-82
2021/08/12 19:31:13;;;;;;;6.38;5.63;;;20.80;99.90;;;;;;5844822;24;20021;-83
2021/08/12 19:33:58;;;;;;;7.10;6.25;;;20.70;99.90;;;;;;5944528;23;20090;-82
2021/08/12 19:37:01;;;;;;;7.63;6.82;;;20.50;99.90;;;;;;6035653;23;20049;-83
2021/08/12 19:40:04;;;;;;;;;;;;;;;;;;;;;
2021/08/12 19:42:48;;;;;;;;;;;;;;;;;;;;;
2021/08/12 19:45:49;;;;;;;8.43;6.90;;;20.10;99.90;;;;;;6193755;22;20099;-83
2021/08/12 19:48:38;;;;;;;9.20;6.85;;;20.00;99.90;;;;;;6153125;23;20059;-84
2021/08/12 19:51:10;;;;;;;;;;;19.90;99.90;;;;;;6166774;22;20032;-83
2021/08/12 19:53:44;;;;;;;8.38;5.65;;;19.80;99.90;;;;;;6209013;23;20313;-82
2021/08/12 19:56:12;;;;;;;6.97;6.00;;;19.70;99.90;;;;;;6189179;23;20063;-82
2021/08/12 19:58:43;;;;;;;5.72;5.05;;;19.50;99.90;;;;;;6203404;23;20016;-81
2021/08/12 20:01:10;;;;;;;6.15;4.60;;;19.50;99.90;;;;;;6199198;23;20020;-82
2021/08/12 20:03:39;;;;;;;5.75;4.88;;;19.40;99.90;;;;;;6214135;23;20025;-81
2021/08/12 20:06:07;;;;;;;4.72;3.70;;;19.20;99.90;;;;;;6203695;23;20035;-82
2021/08/12 20:08:35;;;;;;;5.07;3.08;;;19.10;99.90;;;;;;6213617;23;20451;-80
2021/08/12 20:11:05;;;;;;;5.88;2.85;;;18.90;99.90;;;;;;6202546;23;20525;-82
2021/08/12 20:13:32;;;;;;;3.78;2.40;;;18.80;99.90;;;;;;6189329;23;20074;-83
2021/08/12 20:16:04;;;;;;;3.85;2.60;;;18.70;99.90;;;;;;6201876;23;20024;-82
2021/08/12 20:18:31;;;;;;;5.35;2.40;;;18.60;99.90;;;;;;6188417;23;20035;-82
2021/08/12 20:20:58;;;;;;;6.18;2.47;;;18.50;99.90;;;;;;6213851;23;20051;-82
2021/08/12 20:23:25;;;;;;;4.32;2.05;;;18.30;99.90;;;;;;6212965;23;20370;-83
2021/08/12 20:25:53;;;;;;;6.70;2.50;;;18.30;99.90;;;;;;6202729;23;20015;-82
2021/08/12 20:28:21;;;;;;;6.25;2.08;;;18.20;99.90;;;;;;6174548;23;20028;-83
2021/08/12 20:30:49;;;;;;;5.05;2.35;;;18.10;99.90;;;;;;6202108;23;20036;-82
2021/08/12 20:33:25;;;;;;;8.25;2.83;;;18.10;99.90;;;;;;6187024;23;20016;-82
2021/08/12 20:35:59;;;;;;;6.18;2.50;;;18.00;99.90;;;;;;6213545;23;20017;-82
2021/08/12 20:38:38;;;;;;;5.75;2.40;;;17.90;99.90;;;;;;6189463;23;20025;-82
2021/08/12 20:41:25;;;;;;;7.18;2.40;;;17.70;99.90;;;;;;6077986;23;20018;-83
2021/08/12 20:44:13;;;;;;;7.43;2.77;;;17.60;99.90;;;;;;6076114;23;20097;-83
2021/08/12 20:46:41;;;;;;;7.50;2.92;;;17.50;99.90;;;;;;6072516;23;20022;-82
2021/08/12 20:49:16;;;;;;;7.95;2.67;;;17.40;99.90;;;;;;6095935;23;20025;-83
2021/08/12 20:51:59;;;;;;;6.03;2.67;;;17.40;99.90;;;;;;6084664;23;20029;-82
2021/08/12 20:54:28;;;;;;;7.88;3.60;;;17.30;99.90;;;;;;6084138;23;20040;-81
2021/08/12 20:56:55;;;;;;;9.48;3.00;;;17.20;99.90;;;;;;6083935;23;20470;-83
2021/08/12 20:59:25;;;;;;;7.88;3.30;;;17.20;99.90;;;;;;6051045;23;20109;-79
2021/08/12 21:01:54;;;;;;;10.30;3.28;;;17.10;99.90;;;;;;6128131;23;20064;-80
2021/08/12 21:04:24;;;;;;;6.35;2.65;;;17.00;99.90;;;;;;6140154;23;20017;-81
2021/08/12 21:06:57;;;;;;;8.40;3.00;;;17.00;99.90;;;;;;6179099;23;20019;-83
2021/08/12 21:09:25;;;;;;;11.73;3.95;;;16.90;99.90;;;;;;6203648;23;20012;-79
2021/08/12 21:12:00;;;;;;;8.90;3.47;;;16.90;99.90;;;;;;6203758;23;20012;-83
2021/08/12 21:14:30;;;;;;;7.47;3.15;;;16.80;99.90;;;;;;6203080;23;20020;-82
2021/08/12 21:17:02;;;;;;;11.82;3.40;;;16.90;99.90;;;;;;6206775;23;20016;-81
2021/08/12 21:19:38;;;;;;;8.25;3.47;;;16.80;99.90;;;;;;6188834;23;20095;-82
2021/08/12 21:22:14;;;;;;;9.23;3.50;;;16.80;99.90;;;;;;6155876;23;20017;-82
2021/08/12 21:24:53;;;;;;;11.10;4.20;;;16.80;99.90;;;;;;6218721;23;20048;-82
2021/08/12 21:27:20;;;;;;;10.43;3.85;;;16.70;99.90;;;;;;6217464;23;20352;-83
2021/08/12 21:29:49;;;;;;;9.63;3.75;;;16.70;99.90;;;;;;6218310;23;20013;-82
2021/08/12 21:32:37;;;;;;;10.27;4.20;;;16.60;99.90;;;;;;6191945;23;20020;-82
2021/08/12 21:35:22;;;;;;;10.50;4.13;;;16.60;99.90;;;;;;6204678;23;20074;-82
2021/08/12 21:37:56;;;;;;;10.13;4.18;;;16.60;99.90;;;;;;6219316;23;20012;-83
2021/08/12 21:40:28;;;;;;;9.18;4.47;;;16.60;99.90;;;;;;6217068;23;20029;-82
2021/08/12 21:43:04;;;;;;;9.80;4.00;;;16.50;99.90;;;;;;6218837;23;20321;-83
2021/08/12 21:45:46;;;;;;;;;;;;;;;;;;;;;
2021/08/12 21:48:19;;;;;;;8.57;4.00;;;16.50;99.90;;;;;;6212709;23;20080;-83
2021/08/12 21:50:46;;;;;;;10.60;4.32;;;16.40;99.90;;;;;;6199132;23;20373;-83
2021/08/12 21:53:16;;;;;;;8.95;4.57;;;16.40;99.90;;;;;;6211635;23;20022;-82
2021/08/12 21:55:43;;;;;;;14.48;5.18;;;16.40;99.90;;;;;;6212304;23;20016;-81
2021/08/12 21:58:10;;;;;;;11.77;4.43;;;16.30;99.90;;;;;;6211122;23;20032;-82
2021/08/12 22:00:38;;;;;;;17.50;5.60;;;16.30;99.90;;;;;;6213076;23;20084;-82
2021/08/12 22:03:05;;;;;;;12.57;5.22;;;16.30;99.90;;;;;;6200099;23;20047;-82
2021/08/12 22:05:43;;;;;;;;;;;;;;;;;;;;;
2021/08/12 22:08:11;;;;;;;10.65;5.82;;;16.20;99.90;;;;;;6215393;23;20021;-82
2021/08/12 22:10:38;;;;;;;12.20;5.65;;;16.10;99.90;;;;;;6212701;23;20023;-82
2021/08/12 22:13:05;;;;;;;13.10;5.45;;;16.10;99.90;;;;;;6198859;23;20017;-81
2021/08/12 22:15:39;;;;;;;11.07;5.22;;;16.10;99.90;;;;;;6212963;23;20096;-82
2021/08/12 22:18:09;;;;;;;14.30;5.45;;;16.00;99.90;;;;;;6197584;23;20091;-83
2021/08/12 22:20:50;;;;;;;10.02;5.68;;;16.00;99.90;;;;;;6197500;23;20437;-82
2021/08/12 22:23:32;;;;;;;14.52;5.97;;;16.00;99.90;;;;;;6138350;23;20017;-83
2021/08/12 22:25:59;;;;;;;13.43;6.00;;;15.90;99.90;;;;;;6206618;23;20084;-82
2021/08/12 22:28:28;;;;;;;13.80;5.65;;;15.90;99.90;;;;;;6211669;23;20044;-81
2021/08/12 22:30:55;;;;;;;16.65;6.15;;;15.80;99.90;;;;;;6198281;23;20031;-81
2021/08/12 22:33:22;;;;;;;16.02;6.22;;;15.80;99.90;;;;;;6186733;22;20051;-82
2021/08/12 22:35:53;;;;;;;13.55;6.57;;;15.80;99.90;;;;;;6212362;23;20371;-83
2021/08/12 22:38:21;;;;;;;9.23;5.72;;;15.70;99.90;;;;;;6197098;23;20104;-83
2021/08/12 22:40:48;;;;;;;16.47;6.63;;;15.70;99.90;;;;;;6187927;23;20021;-82
2021/08/12 22:43:16;;;;;;;15.65;5.88;;;15.60;99.90;;;;;;6211516;22;20068;-82
2021/08/12 22:45:43;;;;;;;13.75;5.97;;;15.60;99.90;;;;;;6198084;23;20028;-80
2021/08/12 22:48:10;;;;;;;12.80;5.65;;;15.50;99.90;;;;;;6186566;22;20027;-82
2021/08/12 22:50:37;;;;;;;13.18;5.93;;;15.50;99.90;;;;;;6212280;23;20028;-82
2021/08/12 22:53:04;;;;;;;18.20;6.45;;;15.50;99.90;;;;;;6206955;23;20031;-78
2021/08/12 22:55:31;;;;;;;9.45;4.97;;;15.50;99.90;;;;;;6187787;23;20456;-82
2021/08/12 22:57:58;;;;;;;14.82;5.63;;;15.50;99.90;;;;;;6186970;23;20024;-81
2021/08/12 23:00:25;;;;;;;9.48;5.22;;;15.40;99.90;;;;;;6211253;23;20638;-80
2021/08/12 23:02:52;;;;;;;12.05;4.93;;;15.40;99.90;;;;;;6212797;23;20021;-82
2021/08/12 23:05:21;;;;;;;13.73;5.82;;;15.40;99.90;;;;;;6211817;23;20017;-82
2021/08/12 23:07:50;;;;;;;15.02;5.75;;;15.40;99.90;;;;;;6191662;23;20115;-81
2021/08/12 23:10:18;;;;;;;10.88;6.25;;;15.40;99.90;;;;;;6213427;23;20023;-82
2021/08/12 23:12:45;;;;;;;19.97;6.07;;;15.30;99.90;;;;;;6187236;23;20039;-80
2021/08/12 23:15:14;;;;;;;15.15;6.70;;;15.30;99.90;;;;;;6198983;23;20027;-82
2021/08/12 23:17:43;;;;;;;16.00;6.23;;;15.20;99.90;;;;;;6187581;23;20028;-82
2021/08/12 23:20:12;;;;;;;12.43;5.85;;;15.20;99.90;;;;;;6198771;23;20025;-82
2021/08/12 23:22:39;;;;;;;12.20;5.60;;;15.10;99.90;;;;;;6188048;23;20013;-81
2021/08/12 23:25:08;;;;;;;12.10;5.18;;;15.10;99.90;;;;;;6187019;23;20337;-82
2021/08/12 23:27:38;;;;;;;12.80;5.97;;;15.00;99.90;;;;;;6212876;23;20017;-82
2021/08/12 23:30:05;;;;;;;17.00;6.15;;;15.00;99.90;;;;;;6189440;23;20016;-81
2021/08/12 23:32:32;;;;;;;15.85;4.68;;;15.00;99.90;;;;;;6201722;22;20107;-82
2021/08/12 23:34:59;;;;;;;11.30;5.22;;;14.90;99.90;;;;;;6201205;22;20017;-82
2021/08/12 23:37:26;;;;;;;15.32;5.53;;;14.90;99.90;;;;;;6212785;22;20027;-82
2021/08/12 23:39:53;;;;;;;12.15;5.40;;;14.90;99.90;;;;;;6214182;23;20024;-82
2021/08/12 23:42:23;;;;;;;12.35;5.05;;;14.90;99.90;;;;;;6213157;23;20368;-82
2021/08/12 23:44:50;;;;;;;10.07;4.90;;;14.90;99.90;;;;;;6206247;23;20024;-82
2021/08/12 23:47:17;;;;;;;15.35;5.10;;;14.90;99.90;;;;;;6238088;23;20371;-82
2021/08/12 23:49:44;;;;;;;10.13;5.20;;;14.90;99.90;;;;;;6203044;23;20148;-81
2021/08/12 23:52:16;;;;;;;12.50;4.57;;;14.80;99.90;;;;;;6201762;23;20016;-82
2021/08/12 23:54:43;;;;;;;12.73;5.00;;;14.80;99.90;;;;;;6214206;23;20445;-79
2021/08/12 23:57:10;;;;;;;13.95;4.88;;;14.80;99.90;;;;;;6184014;23;20023;-82
2021/08/12 23:59:47;;;;;;;14.85;5.22;;;14.80;99.90;;;;;;6214164;23;20036;-81
